Time;durP1;ratioP1;P1;durP2;ratioP2;P2;SDS_P1;SDS_P2;PMS_P1;PMS_P2;Temp;Humidity;BMP_temperature;BMP_pressure;BME280_temperature;BME280_humidity;BME280_pressure;Samples;Min_cycle;Max_cycle;Signal;HPM_P1;HPM_P2
2023/02/24 00:02:04;;;;;;;3.70;1.92;;;;;;;;;;4983567;28;20030;-76
2023/02/24 00:04:32;;;;;;;5.60;1.90;;;;;;;;;;4982524;28;20046;-75
2023/02/24 00:06:58;;;;;;;4.55;2.10;;;;;;;;;;4985877;28;20393;-76
2023/02/24 00:09:26;;;;;;;3.50;2.17;;;;;;;;;;4989534;28;20025;-76
2023/02/24 00:11:54;;;;;;;3.35;1.70;;;;;;;;;;4986506;28;20485;-76
2023/02/24 00:14:20;;;;;;;6.22;2.50;;;;;;;;;;4986320;28;20486;-76
2023/02/24 00:16:46;;;;;;;5.57;2.15;;;;;;;;;;4987050;28;20037;-76
2023/02/24 00:19:15;;;;;;;3.15;1.90;;;;;;;;;;4981455;28;20015;-76
2023/02/24 00:21:41;;;;;;;3.88;2.03;;;;;;;;;;4987626;28;20409;-76
2023/02/24 00:24:07;;;;;;;5.63;1.70;;;;;;;;;;4988632;28;20042;-76
2023/02/24 00:26:33;;;;;;;3.30;1.60;;;;;;;;;;4990379;28;20051;-76
2023/02/24 00:29:02;;;;;;;3.80;1.80;;;;;;;;;;4990705;28;20030;-76
2023/02/24 00:31:30;;;;;;;3.13;1.70;;;;;;;;;;4988445;28;20031;-76
2023/02/24 00:33:58;;;;;;;3.60;1.77;;;;;;;;;;4986128;28;20440;-76
2023/02/24 00:36:24;;;;;;;4.18;1.77;;;;;;;;;;4988348;28;20039;-76
2023/02/24 00:38:57;;;;;;;2.75;1.75;;;;;;;;;;4990662;28;20034;-76
2023/02/24 00:41:28;;;;;;;3.53;1.83;;;;;;;;;;4987082;28;20026;-76
2023/02/24 00:43:58;;;;;;;5.07;2.05;;;;;;;;;;4989069;28;20574;-76
2023/02/24 00:46:25;;;;;;;2.95;1.75;;;;;;;;;;4987274;28;20457;-76
2023/02/24 00:48:53;;;;;;;3.08;1.58;;;;;;;;;;4989998;28;20026;-75
2023/02/24 00:51:22;;;;;;;2.80;1.60;;;;;;;;;;4989659;28;20022;-76
2023/02/24 00:53:49;;;;;;;3.58;1.90;;;;;;;;;;4987767;28;20030;-75
2023/02/24 00:56:15;;;;;;;3.40;1.75;;;;;;;;;;4988125;28;20512;-76
2023/02/24 00:58:42;;;;;;;3.15;1.45;;;;;;;;;;4982257;28;20035;-76
2023/02/24 01:01:18;;;;;;;6.78;2.05;;;;;;;;;;4986596;28;20019;-76
2023/02/24 01:03:48;;;;;;;2.70;1.80;;;;;;;;;;4989390;28;20049;-75
2023/02/24 01:06:14;;;;;;;2.97;1.70;;;;;;;;;;4986200;28;20682;-76
2023/02/24 01:08:46;;;;;;;2.92;1.67;;;;;;;;;;4989524;28;20034;-76
2023/02/24 01:14:14;;;;;;;2.38;1.58;;;;;;;;;;4962845;28;20094;-76
2023/02/24 01:16:41;;;;;;;3.75;1.85;;;;;;;;;;4983458;28;20034;-76
2023/02/24 01:19:08;;;;;;;3.47;1.45;;;;;;;;;;4986495;28;20029;-76
2023/02/24 01:21:34;;;;;;;2.58;1.52;;;;;;;;;;4987442;28;20497;-76
2023/02/24 01:24:00;;;;;;;2.40;1.33;;;;;;;;;;4987231;28;20057;-76
2023/02/24 01:26:27;;;;;;;3.88;1.45;;;;;;;;;;4988025;28;20026;-76
2023/02/24 01:28:54;;;;;;;2.55;1.60;;;;;;;;;;4982535;28;20477;-76
2023/02/24 01:31:22;;;;;;;2.97;1.45;;;;;;;;;;4987131;28;20045;-76
2023/02/24 01:33:50;;;;;;;1.63;1.20;;;;;;;;;;4983698;28;20022;-76
2023/02/24 01:36:18;;;;;;;4.20;1.80;;;;;;;;;;4985630;28;20038;-76
2023/02/24 01:38:45;;;;;;;3.05;1.40;;;;;;;;;;4986157;28;20117;-76
2023/02/24 01:41:15;;;;;;;4.07;1.40;;;;;;;;;;4988258;28;20037;-75
2023/02/24 01:44:00;;;;;;;4.40;1.55;;;;;;;;;;4984275;28;20042;-75
2023/02/24 01:46:28;;;;;;;2.50;1.08;;;;;;;;;;4981928;28;20026;-76
2023/02/24 01:48:56;;;;;;;3.63;1.23;;;;;;;;;;4983615;28;20026;-75
2023/02/24 01:51:23;;;;;;;5.25;1.40;;;;;;;;;;4985989;28;20068;-76
2023/02/24 01:53:53;;;;;;;2.85;0.90;;;;;;;;;;4984473;28;20041;-76
2023/02/24 01:56:19;;;;;;;2.22;1.00;;;;;;;;;;4987762;28;20393;-76
2023/02/24 01:58:46;;;;;;;2.28;1.17;;;;;;;;;;4987552;28;20030;-75
2023/02/24 02:01:15;;;;;;;3.03;1.30;;;;;;;;;;4981938;28;20030;-76
2023/02/24 02:03:42;;;;;;;1.67;1.00;;;;;;;;;;4987239;28;20188;-75
2023/02/24 02:06:10;;;;;;;2.42;1.00;;;;;;;;;;4994560;28;20053;-76
2023/02/24 02:08:38;;;;;;;1.80;1.25;;;;;;;;;;4989230;28;20038;-76
2023/02/24 02:11:09;;;;;;;2.03;1.30;;;;;;;;;;4987236;28;20117;-76
2023/02/24 02:13:36;;;;;;;1.30;1.20;;;;;;;;;;4984956;28;20034;-76
2023/02/24 02:16:12;;;;;;;3.88;1.25;;;;;;;;;;4985088;28;20673;-75
2023/02/24 02:18:41;;;;;;;1.40;0.98;;;;;;;;;;4984958;28;20030;-76
2023/02/24 02:21:31;;;;;;;1.42;1.02;;;;;;;;;;4984109;28;20116;-76
2023/02/24 02:24:03;;;;;;;3.42;0.82;;;;;;;;;;4986174;28;20080;-75
2023/02/24 02:26:29;;;;;;;;;;;;;;;;;;4986642;28;20088;-75
2023/02/24 02:29:07;;;;;;;1.90;0.98;;;;;;;;;;4984678;28;19917;-76
2023/02/24 02:31:54;;;;;;;3.53;1.13;;;;;;;;;;4985567;28;20482;-76
2023/02/24 02:34:38;;;;;;;1.35;0.90;;;;;;;;;;4986146;28;20137;-76
2023/02/24 02:37:11;;;;;;;1.40;1.00;;;;;;;;;;4984999;28;20034;-76
2023/02/24 02:39:37;;;;;;;1.23;0.82;;;;;;;;;;4985375;28;20132;-75
2023/02/24 02:42:03;;;;;;;2.05;0.98;;;;;;;;;;4984928;28;20469;-75
2023/02/24 02:44:46;;;;;;;1.20;0.93;;;;;;;;;;4982090;28;20023;-75
2023/02/24 02:47:17;;;;;;;0.75;0.70;;;;;;;;;;4983128;28;20379;-75
2023/02/24 02:49:45;;;;;;;5.57;1.27;;;;;;;;;;4987590;28;20036;-76
2023/02/24 02:52:16;;;;;;;2.45;0.95;;;;;;;;;;4984646;28;20126;-75
2023/02/24 02:54:48;;;;;;;1.10;0.80;;;;;;;;;;4985496;28;20037;-75
2023/02/24 02:57:25;;;;;;;1.40;0.85;;;;;;;;;;4984573;28;20130;-75
2023/02/24 02:59:55;;;;;;;3.47;0.75;;;;;;;;;;4986404;28;20034;-75
2023/02/24 03:02:26;;;;;;;3.95;1.00;;;;;;;;;;4981210;28;20038;-75
2023/02/24 03:04:54;;;;;;;2.22;1.10;;;;;;;;;;4981902;28;20104;-75
2023/02/24 03:07:22;;;;;;;1.63;0.70;;;;;;;;;;4986760;28;20113;-76
2023/02/24 03:09:55;;;;;;;1.00;0.80;;;;;;;;;;4980801;28;20488;-75
2023/02/24 03:12:22;;;;;;;1.02;0.50;;;;;;;;;;4983816;28;20043;-75
2023/02/24 03:14:51;;;;;;;0.98;0.73;;;;;;;;;;4985397;28;20390;-76
2023/02/24 03:17:20;;;;;;;2.45;0.65;;;;;;;;;;4982858;28;20030;-75
2023/02/24 03:19:52;;;;;;;0.60;0.60;;;;;;;;;;4985851;28;20144;-75
2023/02/24 03:22:23;;;;;;;1.20;0.98;;;;;;;;;;4987014;28;20117;-75
2023/02/24 03:24:49;;;;;;;2.33;0.65;;;;;;;;;;4985057;28;20405;-75
2023/02/24 03:27:22;;;;;;;2.72;0.82;;;;;;;;;;4981840;28;20437;-76
2023/02/24 03:30:03;;;;;;;3.45;0.82;;;;;;;;;;4984229;28;20039;-76
2023/02/24 03:32:31;;;;;;;1.40;0.85;;;;;;;;;;4983988;28;20683;-76
2023/02/24 03:35:05;;;;;;;2.17;0.88;;;;;;;;;;4980487;28;20507;-76
2023/02/24 03:37:32;;;;;;;1.38;0.63;;;;;;;;;;4985027;28;20085;-76
2023/02/24 03:40:10;;;;;;;1.20;0.63;;;;;;;;;;4979431;28;20026;-76
2023/02/24 03:42:37;;;;;;;1.35;1.00;;;;;;;;;;4981689;28;20371;-76
2023/02/24 03:45:05;;;;;;;0.98;0.65;;;;;;;;;;4980944;28;20030;-75
2023/02/24 03:47:31;;;;;;;4.68;0.70;;;;;;;;;;4982037;28;20027;-76
2023/02/24 03:49:57;;;;;;;1.05;0.70;;;;;;;;;;4979589;28;20026;-76
2023/02/24 03:52:38;;;;;;;1.70;0.68;;;;;;;;;;4980589;28;20034;-76
2023/02/24 03:55:14;;;;;;;1.30;0.70;;;;;;;;;;4982805;28;20030;-76
2023/02/24 03:57:55;;;;;;;0.45;0.40;;;;;;;;;;4983812;28;20110;-76
2023/02/24 04:00:28;;;;;;;1.27;0.80;;;;;;;;;;4984146;28;20026;-76
2023/02/24 04:03:14;;;;;;;1.23;0.68;;;;;;;;;;4981934;28;20153;-76
2023/02/24 04:05:46;;;;;;;1.42;0.63;;;;;;;;;;4977364;28;20046;-76
2023/02/24 04:08:13;;;;;;;1.83;0.73;;;;;;;;;;4981050;28;20022;-76
2023/02/24 04:10:51;;;;;;;1.83;0.80;;;;;;;;;;4985790;28;20030;-76
2023/02/24 04:13:36;;;;;;;1.40;0.75;;;;;;;;;;4978614;28;20023;-75
2023/02/24 04:16:10;;;;;;;1.98;0.80;;;;;;;;;;4979803;28;20121;-76
2023/02/24 04:18:46;;;;;;;3.58;0.70;;;;;;;;;;4983202;28;20062;-76
2023/02/24 04:21:16;;;;;;;2.25;1.02;;;;;;;;;;4975561;28;20560;-76
2023/02/24 04:23:43;;;;;;;1.13;0.70;;;;;;;;;;4980805;28;20046;-76
2023/02/24 04:26:11;;;;;;;0.75;0.68;;;;;;;;;;4981138;28;20069;-76
2023/02/24 04:28:38;;;;;;;2.53;0.80;;;;;;;;;;4982751;28;20466;-76
2023/02/24 04:31:09;;;;;;;0.63;0.50;;;;;;;;;;4987199;28;20023;-76
2023/02/24 04:33:37;;;;;;;0.90;0.60;;;;;;;;;;4980894;28;20038;-76
2023/02/24 04:36:03;;;;;;;0.70;0.60;;;;;;;;;;4981512;28;20099;-76
2023/02/24 04:38:29;;;;;;;1.58;0.63;;;;;;;;;;4982047;28;20529;-76
2023/02/24 04:40:56;;;;;;;1.20;0.45;;;;;;;;;;4984026;28;20177;-76
2023/02/24 04:43:22;;;;;;;3.65;0.70;;;;;;;;;;4979175;28;20740;-76
2023/02/24 04:45:50;;;;;;;3.88;0.90;;;;;;;;;;4979959;28;20615;-76
2023/02/24 04:48:18;;;;;;;0.77;0.70;;;;;;;;;;4981042;28;20026;-76
2023/02/24 04:50:44;;;;;;;0.93;0.65;;;;;;;;;;4977370;28;20032;-76
2023/02/24 04:53:13;;;;;;;0.68;0.55;;;;;;;;;;4986551;28;20113;-75
2023/02/24 04:55:41;;;;;;;0.80;0.60;;;;;;;;;;4982564;28;20142;-76
2023/02/24 04:58:09;;;;;;;3.63;0.90;;;;;;;;;;4978873;28;20482;-76
2023/02/24 05:00:38;;;;;;;4.78;0.90;;;;;;;;;;4985522;28;20089;-76
2023/02/24 05:03:05;;;;;;;0.93;0.70;;;;;;;;;;4989699;28;20114;-76
2023/02/24 05:05:34;;;;;;;3.25;0.68;;;;;;;;;;4986793;28;20046;-76
2023/02/24 05:08:05;;;;;;;1.88;0.50;;;;;;;;;;4984748;28;20029;-76
2023/02/24 05:10:35;;;;;;;0.70;0.60;;;;;;;;;;4985231;28;20053;-76
2023/02/24 05:13:01;;;;;;;2.50;0.93;;;;;;;;;;4987775;28;20054;-76
2023/02/24 05:15:30;;;;;;;0.80;0.70;;;;;;;;;;4986877;28;20457;-76
2023/02/24 05:18:06;;;;;;;0.60;0.60;;;;;;;;;;4983735;28;20057;-76
2023/02/24 05:23:24;;;;;;;2.38;0.93;;;;;;;;;;4985829;28;20045;-76
2023/02/24 05:25:53;;;;;;;0.82;0.40;;;;;;;;;;4987936;28;20039;-76
2023/02/24 05:28:22;;;;;;;1.55;0.68;;;;;;;;;;4983933;28;20470;-76
2023/02/24 05:30:49;;;;;;;1.50;0.80;;;;;;;;;;4984776;28;20006;-76
2023/02/24 05:33:20;;;;;;;3.75;0.90;;;;;;;;;;4987610;28;20041;-73
2023/02/24 05:35:46;;;;;;;0.80;0.70;;;;;;;;;;4985158;28;20033;-76
2023/02/24 05:38:12;;;;;;;1.02;0.52;;;;;;;;;;4981892;28;20022;-76
2023/02/24 05:40:45;;;;;;;0.52;0.40;;;;;;;;;;4985120;28;20505;-76
2023/02/24 05:43:14;;;;;;;2.92;1.58;;;;;;;;;;4985780;28;20079;-77
2023/02/24 05:45:42;;;;;;;0.80;0.40;;;;;;;;;;4982877;28;20044;-76
2023/02/24 05:48:09;;;;;;;0.70;0.70;;;;;;;;;;4985929;28;20399;-77
2023/02/24 05:50:35;;;;;;;0.98;0.70;;;;;;;;;;4984234;28;20802;-76
2023/02/24 05:53:02;;;;;;;0.88;0.70;;;;;;;;;;4987155;28;20033;-76
2023/02/24 05:55:28;;;;;;;1.63;0.70;;;;;;;;;;4988347;28;20019;-76
2023/02/24 05:57:55;;;;;;;1.70;0.80;;;;;;;;;;4988566;28;20030;-76
2023/02/24 06:00:24;;;;;;;1.25;0.50;;;;;;;;;;4984377;28;20026;-76
2023/02/24 06:02:51;;;;;;;3.95;0.65;;;;;;;;;;4986263;28;20109;-76
2023/02/24 06:05:24;;;;;;;0.63;0.60;;;;;;;;;;4986778;28;20473;-76
2023/02/24 06:08:01;;;;;;;0.30;0.30;;;;;;;;;;4988070;28;20473;-76
2023/02/24 06:10:27;;;;;;;1.23;0.73;;;;;;;;;;4985119;28;20105;-76
2023/02/24 06:12:53;;;;;;;2.13;1.45;;;;;;;;;;4985325;28;20481;-76
2023/02/24 06:15:21;;;;;;;1.63;0.63;;;;;;;;;;4985388;28;20559;-76
2023/02/24 06:17:48;;;;;;;1.45;0.95;;;;;;;;;;4985747;28;20038;-76
2023/02/24 06:20:15;;;;;;;2.33;0.65;;;;;;;;;;4981650;28;20473;-75
2023/02/24 06:22:41;;;;;;;0.60;0.38;;;;;;;;;;4984808;28;20042;-76
2023/02/24 06:25:08;;;;;;;0.80;0.68;;;;;;;;;;4986818;28;20033;-76
2023/02/24 06:27:35;;;;;;;1.33;0.65;;;;;;;;;;4987332;28;20082;-76
2023/02/24 06:30:01;;;;;;;2.45;0.45;;;;;;;;;;4987312;28;20030;-76
2023/02/24 06:32:27;;;;;;;0.55;0.50;;;;;;;;;;4978143;28;20045;-76
2023/02/24 06:34:53;;;;;;;0.93;0.60;;;;;;;;;;4983282;28;20035;-76
2023/02/24 06:37:21;;;;;;;1.95;0.50;;;;;;;;;;4985207;28;20124;-76
2023/02/24 06:39:47;;;;;;;0.63;0.63;;;;;;;;;;4986258;28;20038;-76
2023/02/24 06:42:13;;;;;;;0.47;0.38;;;;;;;;;;4979741;28;20393;-76
2023/02/24 06:44:40;;;;;;;0.40;0.40;;;;;;;;;;4987168;28;20027;-77
2023/02/24 06:47:10;;;;;;;0.30;0.30;;;;;;;;;;4984056;28;20037;-76
2023/02/24 06:49:36;;;;;;;1.10;0.50;;;;;;;;;;4982651;28;20022;-75
2023/02/24 06:52:02;;;;;;;1.27;0.52;;;;;;;;;;4984571;28;20389;-76
2023/02/24 06:54:29;;;;;;;2.75;1.40;;;;;;;;;;4980120;28;20061;-76
2023/02/24 06:56:56;;;;;;;0.32;0.32;;;;;;;;;;4978396;28;20036;-77
2023/02/24 06:59:27;;;;;;;0.63;0.60;;;;;;;;;;4985855;28;20039;-76
2023/02/24 07:01:53;;;;;;;2.10;0.50;;;;;;;;;;4988021;28;20050;-75
2023/02/24 07:04:19;;;;;;;0.55;0.38;;;;;;;;;;4984615;28;20477;-76
2023/02/24 07:06:51;;;;;;;0.38;0.35;;;;;;;;;;4983984;28;20522;-76
2023/02/24 07:09:18;;;;;;;2.33;0.73;;;;;;;;;;4983892;28;20070;-78
2023/02/24 07:11:46;;;;;;;0.50;0.50;;;;;;;;;;4981003;28;20084;-77
2023/02/24 07:14:12;;;;;;;0.50;0.38;;;;;;;;;;4985218;28;20034;-80
2023/02/24 07:16:44;;;;;;;1.42;0.50;;;;;;;;;;4987886;28;20038;-78
2023/02/24 07:19:12;;;;;;;0.30;0.30;;;;;;;;;;4988753;28;20121;-78
2023/02/24 07:21:38;;;;;;;1.52;0.85;;;;;;;;;;4991488;28;20061;-79
2023/02/24 07:24:05;;;;;;;2.67;0.40;;;;;;;;;;4987456;28;20037;-79
2023/02/24 07:26:32;;;;;;;2.88;0.95;;;;;;;;;;4983037;28;20036;-77
2023/02/24 07:29:03;;;;;;;0.30;0.30;;;;;;;;;;4984133;28;20029;-77
2023/02/24 07:31:31;;;;;;;1.20;0.60;;;;;;;;;;4978422;28;20077;-77
2023/02/24 07:33:57;;;;;;;2.83;0.90;;;;;;;;;;4983896;28;20026;-76
2023/02/24 07:36:23;;;;;;;0.68;0.35;;;;;;;;;;4983881;28;20029;-76
2023/02/24 07:38:53;;;;;;;0.40;0.40;;;;;;;;;;4988155;28;20033;-77
2023/02/24 07:41:21;;;;;;;0.20;0.20;;;;;;;;;;4985392;28;20117;-76
2023/02/24 07:43:49;;;;;;;0.43;0.40;;;;;;;;;;4985564;28;20037;-76
2023/02/24 07:46:18;;;;;;;3.30;0.50;;;;;;;;;;4988111;28;20031;-76
2023/02/24 07:48:45;;;;;;;0.85;0.40;;;;;;;;;;4986003;28;20504;-77
2023/02/24 07:51:13;;;;;;;1.90;0.60;;;;;;;;;;4983401;28;20045;-77
2023/02/24 07:53:39;;;;;;;0.63;0.50;;;;;;;;;;4979421;28;20037;-78
2023/02/24 07:56:16;;;;;;;1.05;0.98;;;;;;;;;;4985564;28;20064;-77
2023/02/24 07:58:43;;;;;;;1.83;0.57;;;;;;;;;;4986299;28;20062;-77
2023/02/24 08:01:21;;;;;;;1.30;0.32;;;;;;;;;;4986365;28;20041;-77
2023/02/24 08:04:14;;;;;;;0.75;0.40;;;;;;;;;;4996555;28;20449;-77
2023/02/24 08:06:44;;;;;;;0.85;0.47;;;;;;;;;;4976769;28;20046;-78
2023/02/24 08:09:17;;;;;;;1.38;0.80;;;;;;;;;;4992706;28;20031;-78
2023/02/24 08:11:45;;;;;;;0.70;0.50;;;;;;;;;;4980700;28;20030;-78
2023/02/24 08:14:14;;;;;;;0.50;0.40;;;;;;;;;;4970098;28;20525;-79
2023/02/24 08:16:44;;;;;;;4.13;0.63;;;;;;;;;;4970382;28;20489;-78
2023/02/24 08:19:12;;;;;;;5.57;0.70;;;;;;;;;;4984033;28;20034;-76
2023/02/24 08:21:46;;;;;;;3.67;0.70;;;;;;;;;;4989257;28;20453;-81
2023/02/24 08:24:34;;;;;;;1.45;0.73;;;;;;;;;;4982650;28;20053;-76
2023/02/24 08:27:08;;;;;;;0.52;0.50;;;;;;;;;;4971750;28;20035;-75
2023/02/24 08:29:39;;;;;;;1.20;0.70;;;;;;;;;;4991440;28;20030;-75
2023/02/24 08:32:05;;;;;;;1.52;0.60;;;;;;;;;;4994609;28;20074;-76
2023/02/24 08:34:31;;;;;;;0.57;0.55;;;;;;;;;;4988020;28;20056;-76
2023/02/24 08:36:57;;;;;;;1.20;1.02;;;;;;;;;;4997829;28;20493;-75
2023/02/24 08:39:28;;;;;;;1.45;0.40;;;;;;;;;;4996464;28;20034;-77
2023/02/24 08:41:54;;;;;;;0.30;0.30;;;;;;;;;;4997504;28;20053;-76
2023/02/24 08:44:20;;;;;;;1.70;0.65;;;;;;;;;;4989279;28;20500;-76
2023/02/24 08:46:51;;;;;;;2.72;0.60;;;;;;;;;;4988539;28;20026;-75
2023/02/24 08:49:17;;;;;;;0.82;0.60;;;;;;;;;;4991964;28;20115;-78
2023/02/24 08:51:44;;;;;;;0.47;0.35;;;;;;;;;;4989849;28;20080;-80
2023/02/24 08:54:14;;;;;;;1.75;0.40;;;;;;;;;;4995345;28;20104;-78
2023/02/24 08:56:42;;;;;;;3.33;0.57;;;;;;;;;;5001571;28;20506;-87
2023/02/24 08:59:14;;;;;;;0.65;0.65;;;;;;;;;;4983078;28;20030;-75
2023/02/24 09:01:51;;;;;;;1.80;0.85;;;;;;;;;;4989378;28;20034;-75
2023/02/24 09:04:18;;;;;;;0.73;0.50;;;;;;;;;;4989002;28;20109;-75
2023/02/24 09:06:48;;;;;;;0.50;0.40;;;;;;;;;;4995583;28;20023;-75
2023/02/24 09:09:22;;;;;;;0.65;0.60;;;;;;;;;;4997931;28;20037;-75
2023/02/24 09:11:54;;;;;;;2.47;0.60;;;;;;;;;;4987432;28;20088;-75
2023/02/24 09:14:22;;;;;;;1.17;0.68;;;;;;;;;;4993656;28;20030;-74
2023/02/24 09:17:38;;;;;;;0.68;0.68;;;;;;;;;;4986400;28;20551;-75
2023/02/24 09:22:31;;;;;;;1.48;0.80;;;;;;;;;;4991144;28;20038;-81
2023/02/24 09:25:17;;;;;;;1.33;0.50;;;;;;;;;;4985322;28;20022;-75
2023/02/24 09:27:56;;;;;;;0.75;0.45;;;;;;;;;;4986113;28;20053;-74
2023/02/24 09:30:35;;;;;;;1.85;0.63;;;;;;;;;;5000551;28;20034;-75
2023/02/24 09:33:20;;;;;;;0.57;0.40;;;;;;;;;;4991665;28;20033;-76
2023/02/24 09:35:47;;;;;;;0.75;0.50;;;;;;;;;;4987512;28;20377;-74
2023/02/24 09:38:17;;;;;;;0.75;0.50;;;;;;;;;;4997936;28;20045;-74
2023/02/24 09:40:47;;;;;;;0.57;0.50;;;;;;;;;;4989219;28;20682;-75
2023/02/24 09:43:16;;;;;;;1.02;0.40;;;;;;;;;;4990775;28;20490;-76
2023/02/24 09:45:52;;;;;;;0.90;0.50;;;;;;;;;;4989470;28;20039;-76
2023/02/24 09:48:21;;;;;;;0.30;0.30;;;;;;;;;;4995818;28;20108;-75
2023/02/24 09:51:02;;;;;;;0.75;0.55;;;;;;;;;;4989538;28;20088;-76
2023/02/24 09:53:28;;;;;;;0.60;0.60;;;;;;;;;;4992243;28;20044;-76
2023/02/24 09:56:02;;;;;;;2.42;0.45;;;;;;;;;;4981645;28;20042;-75
2023/02/24 09:58:47;;;;;;;0.77;0.50;;;;;;;;;;4983455;28;20820;-76
2023/02/24 10:01:34;;;;;;;0.40;0.40;;;;;;;;;;4980387;28;20037;-75
2023/02/24 10:04:21;;;;;;;3.60;0.60;;;;;;;;;;4986880;28;20473;-76
2023/02/24 10:06:56;;;;;;;2.00;0.63;;;;;;;;;;4953800;28;20050;-76
2023/02/24 10:09:25;;;;;;;3.05;0.40;;;;;;;;;;4959952;28;20029;-76
2023/02/24 10:12:02;;;;;;;1.40;0.43;;;;;;;;;;4966595;28;20066;-76
2023/02/24 10:14:37;;;;;;;1.20;0.63;;;;;;;;;;4969453;28;20035;-76
2023/02/24 10:17:22;;;;;;;1.25;0.50;;;;;;;;;;4966082;28;20145;-76
2023/02/24 10:19:58;;;;;;;0.50;0.50;;;;;;;;;;4969870;28;20077;-76
2023/02/24 10:22:33;;;;;;;1.80;0.50;;;;;;;;;;4971305;28;20031;-76
2023/02/24 10:25:11;;;;;;;1.85;0.52;;;;;;;;;;4966886;28;20113;-76
2023/02/24 10:27:43;;;;;;;0.60;0.60;;;;;;;;;;4968707;28;20031;-76
2023/02/24 10:30:26;;;;;;;2.20;0.63;;;;;;;;;;4967650;28;20035;-76
2023/02/24 10:33:00;;;;;;;0.45;0.35;;;;;;;;;;4969712;28;20023;-76
2023/02/24 10:35:32;;;;;;;0.38;0.38;;;;;;;;;;4966976;28;20111;-76
2023/02/24 10:38:04;;;;;;;0.50;0.50;;;;;;;;;;4968231;28;20035;-76
2023/02/24 10:40:45;;;;;;;1.95;0.35;;;;;;;;;;4971239;28;20042;-76
2023/02/24 10:43:17;;;;;;;1.17;0.50;;;;;;;;;;4963276;28;20124;-76
2023/02/24 10:45:54;;;;;;;;;;;;;;;;;;4969157;28;20039;-76
2023/02/24 10:48:25;;;;;;;0.52;0.32;;;;;;;;;;4959690;28;19910;-76
2023/02/24 10:51:07;;;;;;;2.30;0.85;;;;;;;;;;4968732;28;20110;-76
2023/02/24 10:53:33;;;;;;;1.27;0.40;;;;;;;;;;4969226;28;20031;-75
2023/02/24 11:01:39;;;;;;;1.65;1.00;;;;;;;;;;4966367;28;20038;-75
2023/02/24 11:04:21;;;;;;;0.47;0.30;;;;;;;;;;4958999;28;20074;-76
2023/02/24 11:07:08;;;;;;;0.25;0.22;;;;;;;;;;4988186;28;20141;-76
2023/02/24 11:09:42;;;;;;;0.52;0.43;;;;;;;;;;4975714;28;20066;-76
2023/02/24 11:18:09;;;;;;;0.90;0.52;;;;;;;;;;4975038;28;20513;-75
2023/02/24 11:20:58;;;;;;;0.30;0.30;;;;;;;;;;4983930;28;20490;-76
2023/02/24 11:23:30;;;;;;;1.38;0.40;;;;;;;;;;4973844;28;20050;-75
2023/02/24 11:26:00;;;;;;;2.50;0.90;;;;;;;;;;4982239;28;20026;-75
2023/02/24 11:28:48;;;;;;;2.05;0.63;;;;;;;;;;4981595;28;20018;-74
2023/02/24 11:31:25;;;;;;;0.50;0.50;;;;;;;;;;4976901;28;20377;-78
2023/02/24 11:33:58;;;;;;;1.05;0.50;;;;;;;;;;4982365;28;20035;-78
2023/02/24 11:36:36;;;;;;;1.58;0.70;;;;;;;;;;4984290;28;20045;-78
2023/02/24 11:39:05;;;;;;;0.50;0.50;;;;;;;;;;4981897;28;20034;-78
2023/02/24 11:41:34;;;;;;;0.35;0.35;;;;;;;;;;4983105;28;20031;-78
2023/02/24 11:44:13;;;;;;;0.65;0.65;;;;;;;;;;4975530;28;20044;-77
2023/02/24 11:46:41;;;;;;;0.68;0.52;;;;;;;;;;4985447;28;20050;-77
2023/02/24 11:49:15;;;;;;;1.38;0.30;;;;;;;;;;4979677;28;20038;-78
2023/02/24 11:51:41;;;;;;;0.45;0.45;;;;;;;;;;4977130;28;20052;-77
2023/02/24 11:54:17;;;;;;;0.68;0.30;;;;;;;;;;4977482;28;20022;-77
2023/02/24 11:56:52;;;;;;;3.85;0.55;;;;;;;;;;4981031;28;20030;-77
2023/02/24 11:59:18;;;;;;;2.15;0.60;;;;;;;;;;4986313;28;20042;-77
2023/02/24 12:02:03;;;;;;;0.30;0.30;;;;;;;;;;4974214;28;20035;-77
2023/02/24 12:04:31;;;;;;;0.75;0.50;;;;;;;;;;4992966;28;20026;-77
2023/02/24 12:07:03;;;;;;;3.00;0.50;;;;;;;;;;4981372;28;20042;-77
2023/02/24 12:09:35;;;;;;;0.93;0.40;;;;;;;;;;4989501;28;20031;-77
2023/02/24 12:12:07;;;;;;;0.30;0.30;;;;;;;;;;4986254;28;20034;-78
2023/02/24 12:14:37;;;;;;;2.92;0.40;;;;;;;;;;4990161;28;20478;-77
2023/02/24 12:17:23;;;;;;;0.32;0.32;;;;;;;;;;4992143;28;20034;-77
2023/02/24 12:19:58;;;;;;;0.30;0.30;;;;;;;;;;4990716;28;20073;-77
2023/02/24 12:22:28;;;;;;;0.25;0.25;;;;;;;;;;4981127;28;20027;-77
2023/02/24 12:25:00;;;;;;;1.27;0.30;;;;;;;;;;4974051;28;20090;-77
2023/02/24 12:27:41;;;;;;;1.20;0.30;;;;;;;;;;4985611;28;20027;-77
2023/02/24 12:30:32;;;;;;;0.45;0.30;;;;;;;;;;4986550;28;20752;-78
2023/02/24 12:32:58;;;;;;;;;;;;;;;;;;4975732;28;20070;-77
2023/02/24 12:35:36;;;;;;;0.50;0.30;;;;;;;;;;4981043;28;19949;-77
2023/02/24 12:38:08;;;;;;;0.70;0.35;;;;;;;;;;4986534;28;20113;-77
2023/02/24 12:40:53;;;;;;;0.45;0.45;;;;;;;;;;4986974;28;20110;-77
2023/02/24 12:43:19;;;;;;;0.38;0.38;;;;;;;;;;4983817;28;20104;-78
2023/02/24 12:45:51;;;;;;;1.95;0.50;;;;;;;;;;4976232;28;20034;-77
2023/02/24 12:48:29;;;;;;;1.25;0.40;;;;;;;;;;4983038;28;20541;-77
2023/02/24 12:51:04;;;;;;;0.55;0.32;;;;;;;;;;4982840;28;20121;-77
2023/02/24 12:53:40;;;;;;;0.28;0.28;;;;;;;;;;4985797;28;20408;-77
2023/02/24 12:56:07;;;;;;;0.20;0.20;;;;;;;;;;4979985;28;20468;-77
2023/02/24 12:58:35;;;;;;;0.77;0.40;;;;;;;;;;4976814;28;20046;-77
2023/02/24 13:01:06;;;;;;;1.38;0.25;;;;;;;;;;4987482;28;20034;-77
2023/02/24 13:03:51;;;;;;;0.60;0.40;;;;;;;;;;4987189;28;20060;-77
2023/02/24 13:06:35;;;;;;;0.63;0.40;;;;;;;;;;4978199;28;20050;-77
2023/02/24 13:09:05;;;;;;;0.20;0.20;;;;;;;;;;4983042;28;20070;-77
2023/02/24 13:11:44;;;;;;;0.20;0.20;;;;;;;;;;4988887;28;20081;-77
2023/02/24 13:14:16;;;;;;;1.00;0.52;;;;;;;;;;4985136;28;20037;-77
2023/02/24 13:16:42;;;;;;;0.17;0.17;;;;;;;;;;4987175;28;20038;-78
2023/02/24 13:19:18;;;;;;;0.77;0.30;;;;;;;;;;4979182;28;20093;-73
2023/02/24 13:21:53;;;;;;;1.38;0.65;;;;;;;;;;4982906;28;20042;-74
2023/02/24 13:24:25;;;;;;;1.33;0.30;;;;;;;;;;4984116;28;20034;-73
2023/02/24 13:26:51;;;;;;;;;;;;;;;;;;4986401;28;20038;-74
2023/02/24 13:29:17;;;;;;;0.30;0.30;;;;;;;;;;4988682;28;20376;-73
2023/02/24 13:31:52;;;;;;;0.30;0.30;;;;;;;;;;4990519;28;20030;-73
2023/02/24 13:34:21;;;;;;;0.40;0.30;;;;;;;;;;4984636;28;20028;-73
2023/02/24 13:36:48;;;;;;;0.40;0.30;;;;;;;;;;4979934;28;20034;-74
2023/02/24 13:39:21;;;;;;;0.43;0.40;;;;;;;;;;4989961;28;20045;-73
2023/02/24 13:41:47;;;;;;;2.47;0.43;;;;;;;;;;4983760;28;20034;-73
2023/02/24 13:44:26;;;;;;;0.35;0.30;;;;;;;;;;4990756;28;20030;-73
2023/02/24 13:47:03;;;;;;;0.30;0.30;;;;;;;;;;4985693;28;20030;-73
2023/02/24 13:49:48;;;;;;;0.35;0.30;;;;;;;;;;4986569;28;20503;-76
2023/02/24 13:52:19;;;;;;;0.40;0.40;;;;;;;;;;4983948;28;20772;-73
2023/02/24 13:55:05;;;;;;;0.30;0.22;;;;;;;;;;4988570;28;20030;-73
2023/02/24 13:57:50;;;;;;;0.30;0.30;;;;;;;;;;4984273;28;20042;-74
2023/02/24 14:00:35;;;;;;;0.32;0.30;;;;;;;;;;4986977;28;20061;-76
2023/02/24 14:03:08;;;;;;;0.70;0.50;;;;;;;;;;4982221;28;20026;-74
2023/02/24 14:05:36;;;;;;;0.22;0.22;;;;;;;;;;4984927;28;20516;-75
2023/02/24 14:08:02;;;;;;;1.45;0.40;;;;;;;;;;4978026;28;20022;-75
2023/02/24 14:10:33;;;;;;;0.80;0.50;;;;;;;;;;4978500;28;20068;-76
2023/02/24 14:13:03;;;;;;;2.90;0.90;;;;;;;;;;4986408;28;20014;-74
2023/02/24 14:15:30;;;;;;;0.82;0.50;;;;;;;;;;4976693;28;20030;-73
2023/02/24 14:18:03;;;;;;;0.30;0.30;;;;;;;;;;4985073;28;20116;-74
2023/02/24 14:20:34;;;;;;;1.15;0.40;;;;;;;;;;4986422;28;20030;-77
2023/02/24 14:23:00;;;;;;;2.40;1.40;;;;;;;;;;4978731;28;20105;-74
2023/02/24 14:25:33;;;;;;;7.68;0.55;;;;;;;;;;4982382;28;20022;-74
2023/02/24 14:27:59;;;;;;;0.52;0.40;;;;;;;;;;4993868;28;20041;-76
2023/02/24 14:30:39;;;;;;;0.45;0.40;;;;;;;;;;4984291;28;20033;-75
2023/02/24 14:33:06;;;;;;;1.45;0.55;;;;;;;;;;4990005;28;20030;-75
2023/02/24 14:35:45;;;;;;;0.30;0.30;;;;;;;;;;4988553;28;20069;-76
2023/02/24 14:38:27;;;;;;;4.32;0.50;;;;;;;;;;4989641;28;20066;-74
2023/02/24 14:40:53;;;;;;;0.40;0.40;;;;;;;;;;4976699;28;20027;-76
2023/02/24 14:43:19;;;;;;;0.50;0.50;;;;;;;;;;4987041;28;20049;-75
2023/02/24 14:45:49;;;;;;;1.33;0.50;;;;;;;;;;4986821;28;20030;-76
2023/02/24 14:48:20;;;;;;;0.65;0.40;;;;;;;;;;4989229;28;20491;-75
2023/02/24 14:50:49;;;;;;;;;;;;;;;;;;4991258;28;20500;-76
2023/02/24 14:53:16;;;;;;;0.65;0.65;;;;;;;;;;4988544;28;19917;-76
2023/02/24 14:55:46;;;;;;;0.30;0.30;;;;;;;;;;4985933;28;20019;-76
2023/02/24 14:58:25;;;;;;;0.22;0.17;;;;;;;;;;4981195;28;20054;-76
2023/02/24 15:01:15;;;;;;;0.35;0.35;;;;;;;;;;4977779;28;20094;-76
2023/02/24 15:03:44;;;;;;;3.45;0.80;;;;;;;;;;4970827;28;20046;-76
2023/02/24 15:06:25;;;;;;;0.95;0.50;;;;;;;;;;4977860;28;20524;-76
2023/02/24 15:08:57;;;;;;;2.90;0.52;;;;;;;;;;4987848;28;20105;-76
2023/02/24 15:11:26;;;;;;;0.95;0.40;;;;;;;;;;4987264;28;20105;-75
2023/02/24 15:13:53;;;;;;;3.58;1.15;;;;;;;;;;4985672;28;20033;-74
2023/02/24 15:16:24;;;;;;;1.75;0.50;;;;;;;;;;4983848;28;20553;-75
2023/02/24 15:18:52;;;;;;;0.30;0.30;;;;;;;;;;4986958;28;20022;-75
2023/02/24 15:21:19;;;;;;;2.58;0.40;;;;;;;;;;4988493;28;20121;-75
2023/02/24 15:23:46;;;;;;;0.28;0.28;;;;;;;;;;4987971;28;20176;-76
2023/02/24 15:26:29;;;;;;;0.57;0.30;;;;;;;;;;4977880;28;20034;-75
2023/02/24 15:29:23;;;;;;;0.82;0.65;;;;;;;;;;4981471;28;20479;-76
2023/02/24 15:31:54;;;;;;;0.47;0.32;;;;;;;;;;4982373;28;20041;-75